Time;durP1;ratioP1;P1;durP2;ratioP2;P2;SDS_P1;SDS_P2;PMS_P1;PMS_P2;Temp;Humidity;BMP_temperature;BMP_pressure;BME280_temperature;BME280_humidity;BME280_pressure;Samples;Min_cycle;Max_cycle;Signal;HPM_P1;HPM_P2
2021/10/28 00:15:26;;;;;;;26.97;23.40;;;;;;;7.91;71.80;101127.34;1682587;84;21070;-63
2021/10/28 00:17:59;;;;;;;35.77;26.03;;;;;;;7.90;71.68;101134.95;1682337;85;21116;-61
2021/10/28 00:20:15;;;;;;;28.13;23.47;;;;;;;7.89;71.70;101133.78;1675483;84;21004;-63
2021/10/28 00:22:42;;;;;;;25.93;21.37;;;;;;;7.94;71.47;101129.68;1693366;84;21011;-64
2021/10/28 00:25:09;;;;;;;;;;;;;;;8.01;71.15;101127.77;1682642;84;21047;-60
2021/10/28 00:27:35;;;;;;;29.87;25.62;;;;;;;8.03;71.11;101135.09;1681513;84;20131;-60
2021/10/28 00:30:02;;;;;;;32.13;24.10;;;;;;;7.92;71.35;101130.33;1675267;84;21151;-64
2021/10/28 00:32:29;;;;;;;31.30;23.33;;;;;;;7.90;71.38;101134.12;1678898;84;21027;-60
2021/10/28 00:34:55;;;;;;;33.02;24.85;;;;;;;7.86;71.39;101126.13;1668259;84;21056;-60
2021/10/28 00:37:21;;;;;;;28.17;24.35;;;;;;;7.81;71.41;101123.91;1675695;84;20996;-62
2021/10/28 00:39:48;;;;;;;31.07;23.63;;;;;;;7.68;71.45;101111.51;1675496;84;21436;-60
2021/10/28 00:42:15;;;;;;;28.60;23.47;;;;;;;7.74;71.54;101125.03;1684039;84;21016;-61
2021/10/28 00:44:45;;;;;;;26.30;22.87;;;;;;;7.79;71.44;101122.73;1629261;87;21595;-61
2021/10/28 00:47:12;;;;;;;26.43;23.43;;;;;;;7.51;71.58;101064.08;1645167;86;21568;-61
2021/10/28 00:49:38;;;;;;;;;;;;;;;7.88;71.67;101120.17;1648219;86;21009;-60
2021/10/28 00:52:06;;;;;;;31.80;23.60;;;;;;;7.83;71.62;101117.13;1656801;85;20117;-61
2021/10/28 00:54:32;;;;;;;27.83;24.00;;;;;;;7.74;71.89;101117.53;1645605;86;21554;-61
2021/10/28 00:56:59;;;;;;;30.88;24.02;;;;;;;7.72;71.98;101118.19;1645919;85;21546;-61
2021/10/28 00:59:26;;;;;;;31.80;26.40;;;;;;;7.71;71.97;101115.20;1640258;86;21499;-61
2021/10/28 01:01:52;;;;;;;31.13;24.57;;;;;;;7.67;71.92;101103.23;1683115;84;21008;-61
2021/10/28 01:04:19;;;;;;;30.00;23.92;;;;;;;7.68;71.98;101100.39;1682583;84;21107;-59
2021/10/28 01:06:47;;;;;;;27.90;24.77;;;;;;;7.77;71.92;101098.67;1644422;86;21020;-61
2021/10/28 01:09:14;;;;;;;29.90;25.13;;;;;;;7.83;71.74;101090.09;1646181;86;21016;-60
2021/10/28 01:11:41;;;;;;;26.43;23.63;;;;;;;7.84;71.83;101097.59;1683374;82;21017;-59
2021/10/28 01:14:07;;;;;;;30.17;25.47;;;;;;;7.82;71.95;101099.53;1680340;84;21092;-60
2021/10/28 01:16:34;;;;;;;31.37;25.10;;;;;;;7.78;71.98;101094.54;1683052;84;21102;-61
2021/10/28 01:19:00;;;;;;;;;;;;;;;7.78;72.21;101103.83;1646582;86;21043;-60
2021/10/28 01:21:26;;;;;;;28.87;24.13;;;;;;;7.79;72.18;101097.52;1637486;86;20487;-61
2021/10/28 01:23:52;;;;;;;30.25;24.95;;;;;;;7.73;72.37;101099.96;1685263;84;20969;-60
2021/10/28 01:26:18;;;;;;;;;;;;;;;7.76;72.34;101097.84;1686141;84;21084;-59
2021/10/28 01:28:56;;;;;;;33.10;25.80;;;;;;;7.85;72.09;101097.41;1683552;84;20171;-61
2021/10/28 01:31:28;;;;;;;29.83;24.10;;;;;;;7.87;71.98;101093.28;1683874;84;21028;-63
2021/10/28 01:33:56;;;;;;;29.20;24.27;;;;;;;7.87;72.29;101075.52;1677887;84;21482;-59
2021/10/28 01:36:24;;;;;;;34.07;27.63;;;;;;;7.86;72.62;101071.72;1666527;84;21113;-60
2021/10/28 01:38:53;;;;;;;36.33;26.83;;;;;;;7.83;72.67;101073.34;1685361;84;21495;-61
2021/10/28 01:41:20;;;;;;;30.30;26.07;;;;;;;7.79;72.67;101075.46;1683675;84;21144;-58
2021/10/28 01:43:47;;;;;;;34.90;26.53;;;;;;;7.78;72.88;101079.12;1679211;84;21493;-58
2021/10/28 01:46:14;;;;;;;28.80;25.77;;;;;;;7.83;72.73;101079.48;1703345;84;21471;-58
2021/10/28 01:48:42;;;;;;;28.50;24.53;;;;;;;7.92;72.67;101077.73;1683584;84;21068;-59
2021/10/28 01:51:10;;;;;;;34.13;26.40;;;;;;;8.01;72.62;101074.67;1701609;84;21015;-75
2021/10/28 01:53:42;;;;;;;29.13;24.67;;;;;;;8.03;72.47;101076.17;1683102;84;21100;-60
2021/10/28 01:56:09;;;;;;;34.73;27.40;;;;;;;8.02;72.55;101069.18;1679402;84;21115;-73
2021/10/28 01:58:36;;;;;;;30.77;26.40;;;;;;;8.01;72.61;101069.36;1682319;84;21069;-59
2021/10/28 02:01:04;;;;;;;33.13;27.87;;;;;;;7.99;72.54;101078.80;1677912;84;21119;-60
2021/10/28 02:03:30;;;;;;;34.30;27.50;;;;;;;7.96;72.66;101075.94;1657041;84;21043;-59
2021/10/28 02:05:56;;;;;;;27.98;24.18;;;;;;;7.95;72.68;101080.92;1673290;84;21029;-59
2021/10/28 02:08:24;;;;;;;32.53;25.13;;;;;;;7.96;72.72;101074.61;1655479;84;21003;-61
2021/10/28 02:10:53;;;;;;;32.50;25.87;;;;;;;8.04;72.45;101075.67;1671881;84;21534;-61
2021/10/28 02:13:21;;;;;;;36.03;25.63;;;;;;;8.09;72.33;101065.43;1664935;84;21072;-60
2021/10/28 02:15:48;;;;;;;31.03;25.90;;;;;;;8.08;72.38;101069.06;1680773;84;21052;-63
2021/10/28 02:18:14;;;;;;;33.90;26.17;;;;;;;8.07;72.63;101074.05;1643665;86;21053;-60
2021/10/28 02:20:40;;;;;;;;;;;;;;;8.07;72.63;101074.05;1644969;86;21080;-60
2021/10/28 02:23:09;;;;;;;29.53;25.67;;;;;;;8.04;72.58;101076.50;1658227;84;20135;-58
2021/10/28 02:25:36;;;;;;;30.60;26.27;;;;;;;7.98;72.81;101081.92;1673958;84;21026;-60
2021/10/28 02:28:02;;;;;;;33.88;26.17;;;;;;;7.99;72.77;101083.61;1672481;84;21037;-61
2021/10/28 02:30:29;;;;;;;29.00;25.57;;;;;;;8.03;72.60;101084.64;1675769;84;21497;-61
2021/10/28 02:32:55;;;;;;;28.80;24.65;;;;;;;8.10;72.36;101086.53;1671904;84;21093;-59
2021/10/28 02:35:21;;;;;;;29.37;26.17;;;;;;;8.14;72.17;101083.90;1656556;84;21041;-63
2021/10/28 02:37:47;;;;;;;28.45;25.37;;;;;;;8.14;72.25;101087.87;1678683;84;21033;-61
2021/10/28 02:40:15;;;;;;;29.07;24.90;;;;;;;8.11;72.56;101080.71;1667172;84;21019;-62
2021/10/28 02:42:41;;;;;;;36.43;26.40;;;;;;;8.09;72.48;101080.03;1676666;84;20999;-59
2021/10/28 02:45:09;;;;;;;35.08;27.55;;;;;;;8.07;72.41;101073.55;1688694;83;21529;-59
2021/10/28 02:47:36;;;;;;;35.30;27.47;;;;;;;8.03;72.33;101066.05;1697107;83;21047;-62
2021/10/28 02:50:04;;;;;;;32.95;26.50;;;;;;;7.96;72.39;101061.34;1695394;83;21136;-60
2021/10/28 02:52:34;;;;;;;32.23;25.87;;;;;;;7.97;72.35;101064.34;1688259;83;21096;-60
2021/10/28 02:55:01;;;;;;;30.77;25.77;;;;;;;8.00;72.15;101059.21;1677775;84;20997;-60
2021/10/28 02:57:27;;;;;;;40.73;26.13;;;;;;;8.01;72.21;101066.70;1686487;82;21065;-60
2021/10/28 02:59:53;;;;;;;29.63;24.87;;;;;;;7.79;72.44;101039.63;1702144;83;20994;-59
2021/10/28 03:02:19;;;;;;;30.77;27.15;;;;;;;7.91;72.65;101071.60;1691533;82;21041;-61
2021/10/28 03:04:45;;;;;;;;;;;;;;;7.89;72.81;101062.10;1694146;83;20998;-60
2021/10/28 03:07:11;;;;;;;32.83;28.80;;;;;;;7.87;72.92;101062.25;1679626;83;20156;-63
2021/10/28 03:09:39;;;;;;;32.80;27.47;;;;;;;7.48;73.08;101010.84;1697058;83;21053;-76
2021/10/28 03:12:08;;;;;;;32.90;26.27;;;;;;;7.83;73.14;101059.56;1694406;83;21447;-64
2021/10/28 03:14:40;;;;;;;30.60;26.67;;;;;;;7.86;73.02;101059.27;1686905;83;21032;-60
2021/10/28 03:20:09;;;;;;;32.50;27.47;;;;;;;7.98;72.78;101046.09;1688080;83;21541;-61
2021/10/28 03:27:38;;;;;;;33.77;28.60;;;;;;;7.90;73.09;101044.70;1672128;84;21148;-68
2021/10/28 03:30:52;;;;;;;34.17;26.57;;;;;;;7.95;73.15;101045.09;1834844;75;23058;-63
2021/10/28 03:33:22;;;;;;;30.82;24.80;;;;;;;7.96;72.93;101057.86;1813133;77;20991;-59
2021/10/28 03:35:48;;;;;;;34.33;28.70;;;;;;;8.05;72.82;101062.75;1764678;80;21001;-60
2021/10/28 03:38:27;;;;;;;33.97;28.47;;;;;;;8.07;72.76;101051.48;1764543;81;21034;-61
2021/10/28 04:30:58;;;;;;;38.00;27.70;;;;;;;8.56;72.08;101042.53;1736174;81;21021;-61
2021/10/28 04:33:25;;;;;;;36.45;26.97;;;;;;;8.71;71.68;101033.47;1736546;82;21013;-60
2021/10/28 04:35:51;;;;;;;36.28;27.75;;;;;;;8.78;71.38;101034.51;1735650;81;20997;-61
2021/10/28 04:38:17;;;;;;;32.98;27.77;;;;;;;8.77;71.29;101041.63;1736756;81;21136;-60
2021/10/28 04:40:43;;;;;;;36.85;28.40;;;;;;;8.77;71.32;101036.81;1727347;81;20980;-61
2021/10/28 04:43:09;;;;;;;30.82;27.55;;;;;;;8.79;71.19;101039.31;1709408;83;21597;-59
2021/10/28 04:45:35;;;;;;;33.50;25.60;;;;;;;8.80;70.98;101036.98;1736932;82;21577;-60
2021/10/28 04:48:01;;;;;;;27.55;23.42;;;;;;;8.82;70.86;101034.52;1737809;81;21046;-62
2021/10/28 04:50:28;;;;;;;29.02;25.68;;;;;;;8.91;70.62;101025.59;1705319;83;21580;-61
2021/10/28 04:52:54;;;;;;;36.40;25.53;;;;;;;8.96;70.47;101034.39;1735779;81;21059;-63
2021/10/28 04:55:21;;;;;;;36.05;27.82;;;;;;;8.95;70.58;101038.06;1733573;80;21010;-60
2021/10/28 04:57:49;;;;;;;30.80;26.20;;;;;;;8.98;70.51;101032.91;1695257;83;21486;-61
2021/10/28 05:00:16;;;;;;;28.57;24.75;;;;;;;8.98;70.45;101039.05;1676407;82;20997;-61
2021/10/28 05:02:42;;;;;;;32.00;26.90;;;;;;;9.00;70.33;101042.38;1738071;82;21050;-62
2021/10/28 05:05:08;;;;;;;38.38;26.05;;;;;;;9.01;70.34;101038.75;1719191;82;20998;-60
2021/10/28 05:07:34;;;;;;;27.85;23.10;;;;;;;9.06;70.19;101036.44;1723540;82;21141;-61
2021/10/28 05:10:03;;;;;;;31.33;25.97;;;;;;;9.18;69.75;101040.14;1729801;82;21078;-60
2021/10/28 05:12:30;;;;;;;32.27;26.07;;;;;;;9.21;69.69;101039.79;1690144;83;21072;-60
2021/10/28 05:14:57;;;;;;;30.73;25.47;;;;;;;9.19;69.72;101047.93;1705276;84;21007;-62
2021/10/28 05:17:23;;;;;;;32.00;26.37;;;;;;;9.18;69.63;101042.29;1698509;83;21533;-62
2021/10/28 05:19:49;;;;;;;36.00;29.27;;;;;;;9.14;69.58;101035.12;1685959;85;21014;-60
2021/10/28 05:22:18;;;;;;;27.07;24.07;;;;;;;9.09;69.68;101031.28;1723484;81;21006;-61
2021/10/28 05:24:44;;;;;;;26.90;23.30;;;;;;;9.13;69.64;101028.12;1722452;82;21054;-60
2021/10/28 05:27:10;;;;;;;30.27;24.75;;;;;;;9.19;69.63;101028.48;1721356;82;21010;-60
2021/10/28 05:29:36;;;;;;;30.72;24.50;;;;;;;9.16;69.67;101026.99;1715982;82;21061;-61
2021/10/28 05:32:03;;;;;;;27.60;24.27;;;;;;;9.16;69.84;101029.14;1706517;83;21013;-62
2021/10/28 05:34:30;;;;;;;30.60;25.57;;;;;;;9.19;69.79;101027.16;1704048;82;21050;-62
2021/10/28 05:36:57;;;;;;;31.23;27.55;;;;;;;9.22;69.77;101037.48;1668059;84;21049;-61
2021/10/28 05:39:23;;;;;;;;;;;;;;;9.27;69.58;101046.64;1683056;85;21010;-61
2021/10/28 05:41:49;;;;;;;25.10;21.43;;;;;;;9.34;69.31;101045.47;1683413;85;20155;-61
2021/10/28 05:44:16;;;;;;;29.92;24.72;;;;;;;9.40;69.11;101043.98;1663760;83;21078;-62
2021/10/28 05:46:43;;;;;;;31.40;26.27;;;;;;;9.42;69.00;101053.50;1696861;83;21144;-60
2021/10/28 05:49:09;;;;;;;;;;;;;;;9.40;69.12;101052.83;1715571;83;21064;-60
2021/10/28 05:51:38;;;;;;;39.73;27.00;;;;;;;9.40;69.13;101051.97;1696419;83;20126;-61
2021/10/28 05:54:03;;;;;;;28.70;24.93;;;;;;;9.35;69.19;101051.97;1697233;83;20981;-62
2021/10/28 05:56:30;;;;;;;37.03;27.63;;;;;;;9.36;69.15;101050.13;1696225;83;21500;-60
2021/10/28 05:58:56;;;;;;;31.35;25.02;;;;;;;9.37;69.24;101055.80;1695984;83;20990;-63
2021/10/28 06:01:24;;;;;;;34.05;24.98;;;;;;;9.44;69.08;101063.98;1696833;83;21041;-62
2021/10/28 06:03:50;;;;;;;28.13;23.77;;;;;;;9.54;68.84;101061.99;1695148;84;21537;-62
2021/10/28 06:06:16;;;;;;;30.68;25.82;;;;;;;9.63;68.60;101057.52;1696907;84;21029;-62
2021/10/28 06:08:43;;;;;;;32.97;25.97;;;;;;;9.65;68.36;101060.34;1700060;84;21062;-60
2021/10/28 06:11:10;;;;;;;31.80;24.93;;;;;;;9.59;68.51;101061.48;1690317;83;21025;-59
2021/10/28 06:13:43;;;;;;;31.62;26.85;;;;;;;9.58;68.99;101063.83;1695530;83;21496;-77
2021/10/28 06:16:07;;;;;;;34.27;26.80;;;;;;;9.61;69.21;101073.66;1692691;84;21055;-60
2021/10/28 06:18:37;;;;;;;31.97;27.87;;;;;;;9.65;68.77;101075.49;1694472;83;21577;-61
2021/10/28 06:21:02;;;;;;;30.03;26.90;;;;;;;9.67;68.48;101072.16;1692396;83;21577;-64
2021/10/28 06:23:28;;;;;;;31.07;27.17;;;;;;;9.67;68.39;101080.16;1715054;82;21091;-63
2021/10/28 06:25:54;;;;;;;32.42;24.55;;;;;;;9.69;68.20;101080.81;1713434;82;21017;-64
2021/10/28 06:28:20;;;;;;;32.85;25.45;;;;;;;9.76;68.16;101075.17;1722305;82;20955;-62
2021/10/28 06:30:46;;;;;;;33.90;25.85;;;;;;;9.84;67.93;101071.17;1705188;83;21102;-60
2021/10/28 06:33:25;;;;;;;34.58;26.90;;;;;;;9.88;67.84;101072.50;1726041;82;21046;-61
2021/10/28 06:35:51;;;;;;;34.67;27.33;;;;;;;9.87;67.64;101080.17;1721380;82;21101;-61
2021/10/28 06:38:18;;;;;;;33.63;26.83;;;;;;;9.83;67.80;101083.31;1725923;83;21060;-64
2021/10/28 06:40:44;;;;;;;36.83;28.37;;;;;;;9.81;67.93;101083.98;1706859;82;21066;-64
2021/10/28 06:43:11;;;;;;;31.10;26.27;;;;;;;9.80;67.99;101082.34;1679796;83;21440;-61
2021/10/28 06:45:38;;;;;;;33.70;27.85;;;;;;;9.73;68.26;101088.30;1707176;82;20955;-61
2021/10/28 06:48:05;;;;;;;29.43;25.77;;;;;;;9.75;68.34;101092.13;1709125;82;21610;-64
2021/10/28 06:50:54;;;;;;;29.60;24.33;;;;;;;9.80;68.36;101092.48;1726139;82;21064;-64
2021/10/28 06:53:11;;;;;;;34.07;27.70;;;;;;;9.84;68.31;101087.66;1718451;82;21047;-61
2021/10/28 07:03:27;;;;;;;32.53;26.20;;;;;;;9.81;68.25;101082.14;1704150;83;21053;-61
2021/10/28 07:05:58;;;;;;;34.40;24.83;;;;;;;9.77;68.43;101082.15;1722096;83;21500;-61
2021/10/28 07:08:24;;;;;;;38.03;26.37;;;;;;;9.81;68.46;101087.47;1707256;83;20984;-61
2021/10/28 07:10:53;;;;;;;30.48;25.60;;;;;;;9.85;68.39;101084.84;1711179;83;21105;-64
2021/10/28 07:13:21;;;;;;;33.20;26.37;;;;;;;9.87;68.27;101084.17;1719962;81;21021;-62
2021/10/28 07:16:05;;;;;;;28.73;25.60;;;;;;;9.86;68.32;101085.66;1721714;82;21006;-61
2021/10/28 08:19:48;;;;;;;29.60;25.23;;;;;;;10.54;67.84;101025.84;1666304;83;21542;-66
2021/10/28 08:30:25;;;;;;;30.50;24.73;;;;;;;10.81;67.29;101018.41;1703687;83;21066;-63
2021/10/28 08:32:49;;;;;;;29.03;24.07;;;;;;;10.80;67.67;101018.09;1702929;83;20979;-63
2021/10/28 08:35:15;;;;;;;32.20;24.67;;;;;;;10.80;67.28;101018.91;1685383;84;21454;-62
2021/10/28 08:37:50;;;;;;;30.47;25.90;;;;;;;10.81;67.26;101017.92;1686242;84;21764;-63
2021/10/28 08:40:16;;;;;;;32.33;25.50;;;;;;;10.84;67.24;101028.23;1673089;84;21557;-62
2021/10/28 08:42:43;;;;;;;31.87;25.57;;;;;;;10.90;66.94;101031.52;1682437;84;21034;-61
2021/10/28 08:45:21;;;;;;;27.65;24.27;;;;;;;10.98;66.67;101036.02;1683770;84;21518;-60
2021/10/28 08:47:48;;;;;;;32.20;24.10;;;;;;;11.03;66.75;101036.31;1633929;85;21082;-61
2021/10/28 08:50:24;;;;;;;29.00;25.00;;;;;;;11.08;66.69;101039.80;1620769;86;21112;-61
2021/10/28 08:55:35;;;;;;;42.33;30.95;;;;;;;11.22;66.27;101039.55;1652254;85;21054;-62
2021/10/28 09:29:14;;;;;;;29.52;24.12;;;;;;;12.20;63.93;101034.00;1717993;82;21062;-64
2021/10/28 09:31:52;;;;;;;28.05;24.55;;;;;;;12.35;63.29;101033.52;1675169;84;21167;-66
2021/10/28 09:34:38;;;;;;;28.12;23.87;;;;;;;12.38;63.31;101022.47;1688514;83;21083;-67
2021/10/28 09:51:18;;;;;;;28.32;21.82;;;;;;;12.64;62.66;101012.65;1671994;84;21072;-66
2021/10/28 09:54:23;;;;;;;21.30;18.52;;;;;;;12.70;62.70;101012.41;1685717;83;21650;-68
2021/10/28 09:59:55;;;;;;;28.10;19.23;;;;;;;12.83;62.32;101010.42;1697256;83;21514;-61
2021/10/28 10:02:40;;;;;;;24.87;18.85;;;;;;;12.93;62.29;101023.50;1676305;83;21079;-62
2021/10/28 10:05:16;;;;;;;24.25;18.85;;;;;;;13.00;62.06;101022.56;1667986;84;21119;-62
2021/10/28 10:07:39;;;;;;;21.55;18.15;;;;;;;13.11;61.90;101017.73;1694241;83;21039;-63
2021/10/28 10:10:07;;;;;;;18.05;16.15;;;;;;;13.24;61.64;101024.09;1697912;83;21004;-61
2021/10/28 10:12:36;;;;;;;18.40;15.90;;;;;;;13.35;61.27;101016.08;1675683;84;21090;-61
2021/10/28 10:15:04;;;;;;;22.37;17.32;;;;;;;13.44;61.00;101014.94;1690338;83;21036;-62
2021/10/28 10:17:30;;;;;;;21.62;15.58;;;;;;;13.54;60.50;101015.13;1660983;85;21010;-69
2021/10/28 10:19:58;;;;;;;31.07;16.85;;;;;;;13.59;60.28;101016.73;1676085;85;21026;-63
2021/10/28 12:01:23;;;;;;;19.15;14.38;;;;;;;14.24;58.53;100964.35;1702580;82;21022;-62
2021/10/28 12:49:03;;;;;;;15.18;12.47;;;;;;;14.83;58.11;101028.78;1679483;82;21526;-64
2021/10/28 12:51:45;;;;;;;16.90;13.03;;;;;;;14.82;58.15;101028.45;1736838;81;21082;-62
2021/10/28 12:54:49;;;;;;;14.20;11.15;;;;;;;14.79;58.27;101027.83;1753542;80;21094;-62
2021/10/28 12:57:07;;;;;;;14.93;11.57;;;;;;;14.81;58.39;101029.50;1752466;80;21089;-62
2021/10/28 13:05:37;;;;;;;14.75;11.93;;;;;;;14.66;58.70;101036.34;1768772;80;21073;-63
2021/10/28 13:35:14;;;;;;;15.43;10.08;;;;;;;14.70;59.09;101063.08;1640712;83;21037;-62
2021/10/28 13:49:14;;;;;;;12.60;10.95;;;;;;;14.67;59.23;101071.52;1702367;83;21157;-65
2021/10/28 14:16:02;;;;;;;14.60;10.98;;;;;;;14.50;59.92;101082.52;1723457;81;21502;-65
2021/10/28 14:26:25;;;;;;;11.78;10.55;;;;;;;14.45;60.24;101084.98;1717931;81;21025;-64
2021/10/28 14:58:47;;;;;;;15.28;11.53;;;;;;;14.43;60.43;101089.72;1726506;80;20979;-63
2021/10/28 15:28:18;;;;;;;14.00;9.95;;;;;;;14.41;61.50;101127.45;1729959;81;21033;-64
2021/10/28 15:47:55;;;;;;;11.57;10.28;;;;;;;14.57;61.28;101147.00;1776959;78;23091;-64
2021/10/28 16:22:04;;;;;;;14.10;12.63;;;;;;;14.53;62.85;101172.01;1678351;84;21057;-63
2021/10/28 16:24:34;;;;;;;13.95;12.03;;;;;;;14.49;62.65;101177.45;1674835;85;21512;-63
2021/10/28 16:27:04;;;;;;;13.40;11.93;;;;;;;14.46;62.71;101177.00;1693359;83;21062;-69
2021/10/28 16:29:32;;;;;;;13.32;12.03;;;;;;;14.45;62.70;101178.01;1659491;85;20998;-64
2021/10/28 16:31:59;;;;;;;13.20;11.90;;;;;;;14.41;62.92;101176.25;1671282;84;21121;-70
2021/10/28 16:34:28;;;;;;;16.85;11.70;;;;;;;14.39;63.00;101184.48;1671945;83;21062;-64
2021/10/28 16:36:55;;;;;;;12.88;11.57;;;;;;;14.41;63.08;101191.00;1682333;84;20990;-62
2021/10/28 16:39:22;;;;;;;15.13;11.80;;;;;;;14.46;62.96;101190.41;1684515;84;21082;-70
2021/10/28 16:41:55;;;;;;;13.93;12.40;;;;;;;14.46;62.93;101191.23;1673487;84;21010;-64
2021/10/28 16:44:22;;;;;;;16.02;12.55;;;;;;;14.43;63.18;101197.00;1671289;84;21275;-62
2021/10/28 16:46:50;;;;;;;13.65;11.78;;;;;;;14.41;63.34;101191.00;1665546;84;21128;-64
2021/10/28 16:49:16;;;;;;;14.40;12.45;;;;;;;14.38;63.42;101196.22;1662712;84;21077;-63
2021/10/28 16:51:44;;;;;;;13.08;11.75;;;;;;;14.37;63.50;101198.60;1667516;85;21056;-62
2021/10/28 16:54:11;;;;;;;16.27;12.93;;;;;;;14.34;63.41;101200.84;1710806;82;20998;-61
2021/10/28 16:56:37;;;;;;;16.37;13.38;;;;;;;14.32;63.69;101202.36;1683005;81;21548;-67
2021/10/28 16:59:04;;;;;;;;;;;;;;;14.32;63.86;101200.20;1666131;86;21060;-63
2021/10/28 17:01:31;;;;;;;14.18;11.75;;;;;;;14.32;63.70;101201.02;1654399;85;20141;-62
2021/10/28 17:03:57;;;;;;;16.87;13.28;;;;;;;14.34;63.71;101198.97;1662721;85;21037;-63
2021/10/28 17:06:23;;;;;;;14.68;12.13;;;;;;;14.38;63.71;101205.61;1662570;85;21029;-62
2021/10/28 17:08:54;;;;;;;15.63;12.05;;;;;;;14.41;63.62;101209.26;1653129;85;20992;-62
2021/10/28 17:11:17;;;;;;;16.48;12.45;;;;;;;14.37;63.91;101207.14;1651355;83;21057;-64
2021/10/28 17:13:45;;;;;;;15.08;12.65;;;;;;;14.35;63.98;101213.20;1675498;84;21035;-64
2021/10/28 17:16:11;;;;;;;16.27;12.68;;;;;;;14.31;64.00;101214.62;1677539;84;20983;-66
2021/10/28 17:18:37;;;;;;;;;;;;;;;14.27;64.01;101214.16;1681725;84;21300;-66
2021/10/28 17:21:05;;;;;;;17.15;12.13;;;;;;;14.25;64.14;101217.55;1680974;84;20115;-61
2021/10/28 17:23:37;;;;;;;13.83;12.10;;;;;;;14.17;64.46;101217.17;1670800;84;20998;-62
2021/10/28 17:26:04;;;;;;;13.75;12.33;;;;;;;14.18;64.34;101217.98;1607360;88;21069;-62
2021/10/28 17:28:33;;;;;;;15.45;11.03;;;;;;;14.17;64.39;101216.34;1609735;88;21057;-63
2021/10/28 17:31:03;;;;;;;11.22;10.00;;;;;;;14.22;64.47;101219.27;1613245;88;20977;-62
2021/10/28 17:33:30;;;;;;;10.28;9.38;;;;;;;14.29;64.25;101224.70;1635175;86;21040;-63
2021/10/28 17:35:56;;;;;;;10.93;9.78;;;;;;;14.28;64.21;101219.02;1625697;86;21092;-64
2021/10/28 17:38:23;;;;;;;;;;;;;;;14.21;64.43;101231.84;1637765;86;21051;-64
2021/10/28 17:40:49;;;;;;;11.25;9.65;;;;;;;14.12;64.68;101226.28;1625973;86;20170;-70
2021/10/28 17:43:18;;;;;;;12.28;10.55;;;;;;;14.01;65.01;101224.09;1634045;86;21051;-63
2021/10/28 17:45:44;;;;;;;10.85;9.23;;;;;;;13.99;65.19;101225.66;1660428;84;21110;-63
2021/10/28 17:48:11;;;;;;;11.90;10.70;;;;;;;13.98;65.27;101229.86;1673058;84;21533;-65
2021/10/28 17:50:38;;;;;;;11.25;10.13;;;;;;;13.94;65.41;101231.26;1678815;84;21043;-62
2021/10/28 17:53:05;;;;;;;12.00;10.15;;;;;;;13.94;65.64;101231.26;1665983;84;21076;-66
2021/10/28 17:55:31;;;;;;;11.10;9.30;;;;;;;13.97;65.45;101231.69;1672582;84;21007;-63
2021/10/28 17:57:57;;;;;;;10.70;9.68;;;;;;;13.98;65.51;101236.56;1619186;86;21070;-65
2021/10/28 18:00:24;;;;;;;13.93;11.20;;;;;;;13.93;65.66;101232.27;1605913;86;21226;-62
2021/10/28 18:02:52;;;;;;;;;;;;;;;13.89;65.87;101231.80;1586621;88;21078;-62
2021/10/28 18:05:19;;;;;;;11.53;10.35;;;;;;;13.85;65.95;101233.73;1582311;88;20162;-63
2021/10/28 18:07:46;;;;;;;12.05;10.80;;;;;;;13.77;66.17;101237.34;1572816;88;21541;-64
2021/10/28 18:10:13;;;;;;;10.68;9.50;;;;;;;13.77;66.27;101231.47;1585159;88;21077;-61
2021/10/28 18:12:39;;;;;;;12.28;10.75;;;;;;;13.82;66.16;101238.93;1602225;87;21087;-61
2021/10/28 18:15:07;;;;;;;11.45;9.60;;;;;;;13.92;66.09;101242.16;1617254;87;21836;-60
2021/10/28 18:17:35;;;;;;;12.47;9.53;;;;;;;13.93;66.02;101244.33;1624766;86;21149;-61
2021/10/28 18:20:05;;;;;;;10.00;9.08;;;;;;;13.90;66.14;101244.69;1625008;86;21113;-64
2021/10/28 18:22:37;;;;;;;11.33;9.60;;;;;;;13.90;66.22;101247.37;1625188;85;21153;-62
2021/10/28 18:25:06;;;;;;;11.68;10.23;;;;;;;13.91;66.29;101241.00;1623752;86;21077;-68
2021/10/28 18:27:33;;;;;;;9.28;8.38;;;;;;;13.89;66.28;101243.05;1654766;85;21567;-61
2021/10/28 18:30:00;;;;;;;9.90;8.90;;;;;;;13.88;66.38;101243.56;1646110;85;21010;-61
2021/10/28 18:32:28;;;;;;;8.48;7.60;;;;;;;13.90;66.39;101243.34;1647050;85;21077;-63
2021/10/28 18:34:55;;;;;;;12.78;8.23;;;;;;;13.96;66.31;101249.32;1651732;85;21055;-61
2021/10/28 18:37:22;;;;;;;9.45;8.35;;;;;;;13.99;66.24;101248.92;1629728;86;20958;-60
2021/10/28 18:39:51;;;;;;;9.60;8.73;;;;;;;13.97;66.31;101249.11;1652627;85;21139;-64
2021/10/28 18:42:16;;;;;;;10.45;8.28;;;;;;;13.98;66.33;101249.96;1653378;85;21127;-60
2021/10/28 18:44:42;;;;;;;9.73;8.75;;;;;;;13.97;66.31;101253.64;1649454;85;21093;-61
2021/10/28 18:47:08;;;;;;;9.90;9.00;;;;;;;13.93;66.41;101255.05;1653379;85;21090;-62
2021/10/28 18:49:37;;;;;;;11.12;9.35;;;;;;;13.90;66.50;101257.61;1656634;85;21034;-61
2021/10/28 18:52:03;;;;;;;10.00;8.50;;;;;;;13.92;66.53;101258.73;1649635;85;21063;-65
2021/10/28 18:54:29;;;;;;;9.35;8.45;;;;;;;13.95;66.47;101259.70;1661280;85;21007;-61
2021/10/28 18:56:55;;;;;;;9.73;8.93;;;;;;;13.97;66.47;101266.53;1679232;84;21016;-64
2021/10/28 18:59:23;;;;;;;;;;;;;;;13.96;66.55;101270.77;1679285;84;21061;-62
2021/10/28 19:01:50;;;;;;;9.28;8.58;;;;;;;13.93;66.60;101263.91;1671714;84;20148;-63
2021/10/28 19:04:19;;;;;;;11.15;8.63;;;;;;;13.87;66.80;101274.56;1658226;84;21537;-60
2021/10/28 19:06:46;;;;;;;9.70;8.70;;;;;;;13.85;66.90;101269.38;1675832;84;21167;-60
2021/10/28 19:09:15;;;;;;;10.48;9.38;;;;;;;13.85;66.94;101279.28;1670897;84;21052;-62
2021/10/28 19:11:43;;;;;;;12.00;8.60;;;;;;;13.88;66.91;101281.56;1669612;84;21528;-65
2021/10/28 19:14:09;;;;;;;8.98;8.08;;;;;;;13.92;66.82;101280.17;1664678;84;21025;-60
2021/10/28 19:16:35;;;;;;;9.33;8.43;;;;;;;13.91;66.85;101286.05;1667659;84;21050;-61
2021/10/28 19:19:03;;;;;;;;;;;;;;;13.88;67.02;101285.59;1617660;87;21133;-65
2021/10/28 19:21:30;;;;;;;11.63;9.63;;;;;;;13.79;67.33;101284.36;1622185;87;20423;-61
2021/10/28 19:23:57;;;;;;;14.05;9.00;;;;;;;13.67;67.74;101287.69;1628227;86;21027;-63
2021/10/28 19:26:23;;;;;;;13.45;9.18;;;;;;;13.56;68.03;101286.30;1675965;84;21061;-64
2021/10/28 19:28:49;;;;;;;10.95;9.65;;;;;;;13.51;68.14;101294.08;1674536;84;21002;-62
2021/10/28 19:33:52;;;;;;;9.78;8.78;;;;;;;13.59;68.20;101296.66;1668323;84;21081;-62
2021/10/28 19:42:10;;;;;;;11.78;10.58;;;;;;;13.58;68.49;101305.20;1673023;84;21630;-64
2021/10/28 19:47:14;;;;;;;13.68;10.08;;;;;;;13.45;68.80;101305.02;1691566;84;21078;-60
2021/10/28 19:49:46;;;;;;;11.88;10.68;;;;;;;13.44;69.12;101308.70;1673395;84;21077;-62
2021/10/28 19:52:15;;;;;;;11.48;10.28;;;;;;;13.46;68.95;101305.84;1665385;84;21596;-61
2021/10/28 19:54:50;;;;;;;13.30;9.90;;;;;;;13.49;68.90;101316.20;1611100;87;21054;-61
2021/10/28 19:57:20;;;;;;;11.50;10.30;;;;;;;13.50;68.90;101318.67;1635704;86;21084;-64
2021/10/28 19:59:52;;;;;;;15.95;10.70;;;;;;;13.50;68.97;101315.98;1648583;86;21076;-65
2021/10/28 20:02:36;;;;;;;11.88;10.70;;;;;;;13.48;69.11;101315.34;1661917;84;21124;-61
2021/10/28 20:08:04;;;;;;;12.18;10.70;;;;;;;13.53;69.18;101322.33;1661300;84;21044;-60
2021/10/28 20:20:56;;;;;;;11.85;10.65;;;;;;;13.34;69.77;101328.23;1650409;85;21450;-61
2021/10/28 20:23:22;;;;;;;13.03;10.95;;;;;;;13.29;70.02;101331.41;1630721;86;21528;-60
2021/10/28 20:25:49;;;;;;;9.73;8.73;;;;;;;13.29;70.43;101328.73;1680749;83;21038;-63
2021/10/28 20:28:15;;;;;;;10.20;9.13;;;;;;;13.32;70.51;101331.08;1673226;83;21174;-59
2021/10/28 20:33:14;;;;;;;16.45;14.73;;;;;;;13.49;70.33;101321.55;1684064;83;21032;-60
2021/10/28 20:35:54;;;;;;;12.65;11.30;;;;;;;13.53;69.97;101321.51;1670135;83;21517;-60
2021/10/28 20:38:08;;;;;;;11.75;10.45;;;;;;;13.52;69.74;101323.84;1680650;83;22293;-61